Time;durP1;ratioP1;P1;durP2;ratioP2;P2;SDS_P1;SDS_P2;PMS_P1;PMS_P2;Temp;Humidity;BMP_temperature;BMP_pressure;BME280_temperature;BME280_humidity;BME280_pressure;Samples;Min_cycle;Max_cycle;Signal;HPM_P1;HPM_P2
2022/03/01 00:00:01;;;;;;;6.77;5.30;;;5.30;51.60;;;;;;980633;142;27297;-75
2022/03/01 00:02:27;;;;;;;6.27;5.20;;;5.20;51.60;;;;;;949414;148;27305;-75
2022/03/01 00:04:54;;;;;;;8.00;6.03;;;5.20;51.60;;;;;;949440;148;27355;-75
2022/03/01 00:07:20;;;;;;;7.10;5.97;;;5.20;51.60;;;;;;958632;146;27977;-75
2022/03/01 00:09:47;;;;;;;5.70;4.70;;;5.20;51.60;;;;;;958029;149;27889;-75
2022/03/01 00:12:14;;;;;;;6.43;5.37;;;5.10;51.60;;;;;;957170;149;27374;-75
2022/03/01 00:14:40;;;;;;;7.27;5.43;;;5.10;51.60;;;;;;943670;148;27377;-75
2022/03/01 00:17:07;;;;;;;6.67;5.20;;;5.00;51.60;;;;;;938350;148;27410;-75
2022/03/01 00:19:33;;;;;;;7.10;5.27;;;5.00;51.60;;;;;;959985;144;27251;-75
2022/03/01 00:22:00;;;;;;;9.83;6.70;;;4.90;51.60;;;;;;957542;144;27302;-75
2022/03/01 00:24:26;;;;;;;8.80;5.70;;;4.90;51.70;;;;;;963068;144;27363;-75
2022/03/01 00:26:53;;;;;;;7.03;5.47;;;4.80;51.70;;;;;;960493;144;27375;-75
2022/03/01 00:29:20;;;;;;;8.63;6.37;;;4.80;51.70;;;;;;957858;144;27310;-75
2022/03/01 00:31:46;;;;;;;8.40;6.07;;;4.70;51.80;;;;;;961005;144;27755;-75
2022/03/01 00:34:13;;;;;;;7.10;5.40;;;4.70;51.80;;;;;;959572;144;27346;-75
2022/03/01 00:36:39;;;;;;;7.77;5.27;;;4.70;51.90;;;;;;959087;144;27310;-75
2022/03/01 00:39:06;;;;;;;7.97;6.27;;;4.70;51.90;;;;;;960197;144;27293;-75
2022/03/01 00:41:33;;;;;;;6.50;5.33;;;4.60;52.00;;;;;;959834;144;27360;-75
2022/03/01 00:43:59;;;;;;;7.37;5.67;;;4.60;52.00;;;;;;959475;144;27416;-75
2022/03/01 00:46:26;;;;;;;10.40;5.97;;;4.60;52.60;;;;;;960822;144;27383;-75
2022/03/01 00:48:55;;;;;;;8.77;5.70;;;4.60;52.00;;;;;;958653;144;27398;-75
2022/03/01 00:51:22;;;;;;;8.10;5.70;;;4.60;52.00;;;;;;963102;144;27306;-75
2022/03/01 00:53:48;;;;;;;7.33;5.37;;;4.50;52.00;;;;;;959325;144;27278;-75
2022/03/01 00:56:15;;;;;;;7.67;5.63;;;4.50;51.30;;;;;;958457;144;27310;-75
2022/03/01 00:58:41;;;;;;;10.00;6.17;;;4.50;52.00;;;;;;960168;144;27331;-75
2022/03/01 01:01:08;;;;;;;8.60;5.80;;;4.50;52.10;;;;;;958061;144;27397;-75
2022/03/01 01:03:35;;;;;;;8.00;6.30;;;4.40;52.00;;;;;;962085;144;27435;-75
2022/03/01 01:06:01;;;;;;;6.63;5.23;;;4.40;52.00;;;;;;961701;144;27320;-75
2022/03/01 01:08:28;;;;;;;6.93;5.37;;;4.40;52.20;;;;;;959146;144;27295;-75
2022/03/01 01:10:54;;;;;;;8.00;5.47;;;4.30;52.00;;;;;;958267;144;27295;-75
2022/03/01 01:13:21;;;;;;;8.83;5.67;;;4.30;52.10;;;;;;960413;144;27287;-75
2022/03/01 01:15:47;;;;;;;7.70;5.67;;;4.20;52.00;;;;;;961846;142;27320;-75
2022/03/01 01:18:14;;;;;;;6.93;4.93;;;4.20;52.10;;;;;;981063;142;27265;-75
2022/03/01 01:20:41;;;;;;;6.93;5.47;;;4.10;52.10;;;;;;979409;143;27269;-75
2022/03/01 01:23:07;;;;;;;9.57;5.97;;;4.10;52.20;;;;;;979931;142;27332;-75
2022/03/01 01:25:34;;;;;;;8.70;6.03;;;4.00;52.20;;;;;;979980;142;27334;-75
2022/03/01 01:28:00;;;;;;;8.13;5.83;;;4.00;52.20;;;;;;981859;142;27225;-75
2022/03/01 01:30:27;;;;;;;9.20;6.23;;;3.90;52.40;;;;;;981274;142;27265;-75
2022/03/01 01:32:54;;;;;;;8.17;5.50;;;3.90;52.40;;;;;;978932;142;27342;-75
2022/03/01 01:35:20;;;;;;;9.13;6.20;;;3.80;52.40;;;;;;981150;142;27296;-75
2022/03/01 01:37:47;;;;;;;9.00;5.50;;;3.80;52.50;;;;;;981902;142;27297;-75
2022/03/01 01:40:13;;;;;;;6.47;5.10;;;3.80;52.50;;;;;;981336;142;27401;-75
2022/03/01 01:42:40;;;;;;;8.20;5.50;;;3.70;52.50;;;;;;979644;142;27317;-75
2022/03/01 01:45:06;;;;;;;9.10;5.50;;;3.70;52.60;;;;;;981294;142;27287;-75
2022/03/01 01:47:33;;;;;;;7.83;5.10;;;3.60;52.60;;;;;;980708;142;27281;-75
2022/03/01 01:50:00;;;;;;;6.20;5.03;;;3.60;52.70;;;;;;980417;142;27287;-75
2022/03/01 01:52:26;;;;;;;7.13;4.87;;;3.50;52.60;;;;;;982854;142;27290;-75
2022/03/01 01:54:53;;;;;;;6.93;5.20;;;3.50;52.70;;;;;;982103;142;27245;-75
2022/03/01 01:57:19;;;;;;;7.47;5.20;;;3.40;52.70;;;;;;979969;142;27329;-75
2022/03/01 01:59:46;;;;;;;5.07;4.43;;;3.40;52.80;;;;;;978908;142;27328;-75
2022/03/01 02:02:16;;;;;;;6.63;5.13;;;3.30;52.90;;;;;;982121;142;27324;-75
2022/03/01 02:04:42;;;;;;;8.43;5.47;;;3.30;53.00;;;;;;981941;142;27295;-75
2022/03/01 02:07:09;;;;;;;7.53;5.30;;;3.20;53.00;;;;;;981066;142;27245;-75
2022/03/01 02:09:35;;;;;;;6.60;5.07;;;3.10;53.00;;;;;;981521;142;27778;-75
2022/03/01 02:12:02;;;;;;;7.90;5.33;;;3.10;53.10;;;;;;982660;142;27269;-75
2022/03/01 02:14:29;;;;;;;6.37;4.93;;;3.00;53.10;;;;;;981113;142;27349;-75
2022/03/01 02:16:55;;;;;;;9.17;5.33;;;3.00;53.20;;;;;;979588;142;27496;-75
2022/03/01 02:19:22;;;;;;;7.80;5.53;;;2.90;53.30;;;;;;982757;142;27374;-75
2022/03/01 02:21:48;;;;;;;5.97;4.87;;;2.90;53.40;;;;;;980283;142;28772;-75
2022/03/01 02:24:15;;;;;;;7.87;5.50;;;2.90;53.60;;;;;;982651;142;27261;-75
2022/03/01 02:26:41;;;;;;;6.57;5.37;;;2.90;53.60;;;;;;980836;142;27237;-75
2022/03/01 02:29:08;;;;;;;7.07;5.63;;;2.80;53.60;;;;;;981961;142;27273;-75
2022/03/01 02:31:35;;;;;;;7.53;5.37;;;2.80;53.60;;;;;;981678;142;27316;-75
2022/03/01 02:34:01;;;;;;;6.70;5.13;;;2.80;53.60;;;;;;980811;142;27418;-75
2022/03/01 02:36:28;;;;;;;8.13;5.13;;;2.70;53.70;;;;;;941144;148;27510;-75
2022/03/01 02:38:54;;;;;;;8.93;5.70;;;2.70;53.80;;;;;;947434;148;27813;-75
2022/03/01 02:41:21;;;;;;;6.17;5.23;;;2.60;53.20;;;;;;958114;146;27332;-75
2022/03/01 02:43:48;;;;;;;7.07;4.83;;;2.60;53.80;;;;;;944484;148;27319;-75
2022/03/01 02:46:14;;;;;;;5.90;4.67;;;2.50;53.80;;;;;;944753;148;27352;-75
2022/03/01 02:48:41;;;;;;;7.53;5.80;;;2.40;53.80;;;;;;956817;149;27773;-75
2022/03/01 02:51:07;;;;;;;10.83;6.20;;;2.40;53.90;;;;;;948053;148;27460;-75
2022/03/01 02:53:36;;;;;;;10.53;6.20;;;2.30;54.00;;;;;;942346;148;27397;-75
2022/03/01 02:56:00;;;;;;;8.93;5.90;;;2.30;54.00;;;;;;942912;148;27264;-75
2022/03/01 02:58:27;;;;;;;8.53;6.30;;;2.30;54.20;;;;;;943330;148;27337;-75
2022/03/01 03:00:54;;;;;;;7.50;5.30;;;2.20;54.20;;;;;;958041;146;27323;-75
2022/03/01 03:03:20;;;;;;;7.23;4.83;;;2.20;54.30;;;;;;955482;149;27421;-75
2022/03/01 03:05:47;;;;;;;9.13;4.93;;;2.20;54.40;;;;;;955170;149;27317;-75
2022/03/01 03:08:13;;;;;;;8.67;5.37;;;2.20;54.40;;;;;;957044;149;27804;-75
2022/03/01 03:10:40;;;;;;;7.87;5.20;;;2.10;54.50;;;;;;949065;147;27451;-75
2022/03/01 03:13:07;;;;;;;8.30;5.17;;;2.10;54.50;;;;;;951744;147;27422;-75
2022/03/01 03:15:33;;;;;;;6.77;4.97;;;2.10;54.50;;;;;;947349;147;27356;-75
2022/03/01 03:18:00;;;;;;;7.17;5.47;;;2.10;54.70;;;;;;943257;148;27498;-75
2022/03/01 03:20:26;;;;;;;7.73;5.20;;;2.00;54.70;;;;;;935996;152;27350;-76
2022/03/01 03:22:53;;;;;;;7.07;5.60;;;2.00;54.80;;;;;;962544;146;27230;-76
2022/03/01 03:25:19;;;;;;;7.40;5.40;;;2.00;54.80;;;;;;959578;146;27405;-75
2022/03/01 03:27:46;;;;;;;5.53;4.40;;;1.90;54.80;;;;;;960932;148;27334;-75
2022/03/01 03:30:13;;;;;;;6.70;5.03;;;1.90;54.80;;;;;;928187;151;27279;-75
2022/03/01 03:32:39;;;;;;;6.63;5.40;;;1.80;54.80;;;;;;958629;148;27460;-76
2022/03/01 03:35:06;;;;;;;7.20;4.90;;;1.70;55.30;;;;;;958412;146;27303;-76
2022/03/01 03:37:32;;;;;;;6.37;4.60;;;1.70;55.00;;;;;;959271;145;27310;-76
2022/03/01 03:39:59;;;;;;;6.00;4.47;;;1.70;55.10;;;;;;928610;154;27396;-76
2022/03/01 03:42:26;;;;;;;6.67;4.43;;;1.60;55.10;;;;;;925842;153;27388;-76
2022/03/01 03:44:52;;;;;;;5.80;4.63;;;1.50;55.10;;;;;;957075;148;27460;-76
2022/03/01 03:47:19;;;;;;;7.53;5.43;;;1.50;55.20;;;;;;956627;148;27266;-76
2022/03/01 03:49:45;;;;;;;8.50;5.80;;;1.50;55.30;;;;;;920177;154;27325;-76
2022/03/01 03:52:12;;;;;;;8.10;5.27;;;1.40;55.30;;;;;;957806;146;27258;-77
2022/03/01 03:54:38;;;;;;;6.97;5.27;;;1.40;55.50;;;;;;958678;148;27790;-76
2022/03/01 03:57:08;;;;;;;7.20;5.33;;;1.30;55.50;;;;;;955218;148;27288;-76
2022/03/01 03:59:32;;;;;;;8.20;6.00;;;1.30;55.50;;;;;;928549;154;27335;-76
2022/03/01 04:01:58;;;;;;;7.30;5.03;;;1.30;55.60;;;;;;960701;146;27338;-76
2022/03/01 04:04:25;;;;;;;7.73;5.60;;;1.30;55.70;;;;;;963764;148;27412;-76
2022/03/01 04:06:51;;;;;;;7.90;5.70;;;1.30;55.80;;;;;;921317;154;27431;-76
2022/03/01 04:09:18;;;;;;;7.83;6.20;;;1.30;55.80;;;;;;960664;146;27311;-76
2022/03/01 04:11:45;;;;;;;8.03;5.83;;;1.30;55.90;;;;;;961783;148;27261;-76
2022/03/01 04:14:11;;;;;;;7.73;6.53;;;1.40;55.80;;;;;;961848;147;27291;-76
2022/03/01 04:16:42;;;;;;;9.00;5.37;;;1.40;55.80;;;;;;960691;148;27309;-76
2022/03/01 04:19:04;;;;;;;7.90;6.07;;;1.40;55.80;;;;;;975768;142;27440;-77
2022/03/01 04:21:31;;;;;;;7.43;5.10;;;1.50;55.90;;;;;;979935;142;27332;-76
2022/03/01 04:23:57;;;;;;;8.60;5.33;;;1.50;55.90;;;;;;980455;142;27571;-77
2022/03/01 04:26:24;;;;;;;8.80;6.00;;;1.60;55.80;;;;;;979701;142;27380;-77
2022/03/01 04:28:51;;;;;;;7.07;5.40;;;1.60;56.40;;;;;;982580;142;27361;-76
2022/03/01 04:31:17;;;;;;;7.50;5.50;;;1.60;55.80;;;;;;979136;142;27278;-77
2022/03/01 04:33:44;;;;;;;8.20;5.83;;;1.60;55.80;;;;;;980333;142;27410;-76
2022/03/01 04:36:10;;;;;;;6.90;5.43;;;1.60;55.70;;;;;;979436;142;27333;-76
2022/03/01 04:38:37;;;;;;;8.03;5.47;;;1.60;55.70;;;;;;982389;142;27448;-77
2022/03/01 04:41:04;;;;;;;9.33;5.50;;;1.70;55.70;;;;;;979673;142;27319;-77
2022/03/01 04:43:30;;;;;;;8.83;6.17;;;1.60;55.60;;;;;;980461;142;27320;-76
2022/03/01 04:45:57;;;;;;;6.40;4.80;;;1.60;55.60;;;;;;980215;142;27320;-77
2022/03/01 04:48:23;;;;;;;9.00;6.10;;;1.60;55.60;;;;;;979640;142;27246;-77
2022/03/01 04:50:50;;;;;;;7.87;5.60;;;1.60;55.60;;;;;;982369;142;27309;-76
2022/03/01 04:53:17;;;;;;;5.43;4.87;;;1.60;55.70;;;;;;980036;142;27430;-76
2022/03/01 04:55:43;;;;;;;9.03;6.43;;;1.60;55.60;;;;;;978520;142;27342;-76
2022/03/01 04:58:10;;;;;;;7.20;5.33;;;1.60;55.70;;;;;;978727;142;27320;-76
2022/03/01 05:00:36;;;;;;;6.97;5.17;;;1.60;55.70;;;;;;981127;142;27299;-77
2022/03/01 05:03:03;;;;;;;9.10;5.97;;;1.60;55.60;;;;;;981426;145;27346;-76
2022/03/01 05:05:29;;;;;;;8.43;6.07;;;1.60;55.60;;;;;;980871;142;27406;-76
2022/03/01 05:07:56;;;;;;;6.60;5.47;;;1.60;55.70;;;;;;979724;142;27219;-76
2022/03/01 05:10:23;;;;;;;7.90;6.07;;;1.60;55.80;;;;;;980170;142;27331;-76
2022/03/01 05:12:49;;;;;;;9.10;5.23;;;1.60;56.30;;;;;;981038;142;27360;-77
2022/03/01 05:15:16;;;;;;;8.70;5.43;;;1.60;55.70;;;;;;980306;142;27954;-77
2022/03/01 05:17:42;;;;;;;9.33;5.27;;;1.60;55.70;;;;;;983324;142;27271;-77
2022/03/01 05:20:09;;;;;;;7.10;5.57;;;1.60;55.60;;;;;;965079;142;27313;-76
2022/03/01 05:22:36;;;;;;;9.47;6.97;;;1.60;55.80;;;;;;958695;144;27412;-77
2022/03/01 05:25:02;;;;;;;7.83;5.70;;;1.60;55.80;;;;;;958771;144;27299;-77
2022/03/01 05:27:29;;;;;;;6.33;5.17;;;1.60;55.80;;;;;;960062;144;27345;-76
2022/03/01 05:29:55;;;;;;;8.47;5.97;;;1.60;55.80;;;;;;959225;144;27421;-76
2022/03/01 05:32:22;;;;;;;7.33;4.93;;;1.60;55.80;;;;;;958639;144;27362;-77
2022/03/01 05:34:48;;;;;;;10.00;5.73;;;1.60;55.80;;;;;;960280;144;27270;-77
2022/03/01 05:37:15;;;;;;;7.97;5.50;;;1.60;55.80;;;;;;959080;144;27333;-77
2022/03/01 05:39:42;;;;;;;7.53;4.80;;;1.60;55.80;;;;;;958761;144;27365;-77
2022/03/01 05:42:08;;;;;;;8.27;5.63;;;1.60;55.70;;;;;;958071;144;27301;-77
2022/03/01 05:44:35;;;;;;;9.33;6.40;;;1.60;55.70;;;;;;959793;144;27375;-77
2022/03/01 05:47:01;;;;;;;7.73;6.00;;;1.60;55.90;;;;;;959940;144;27334;-77
2022/03/01 05:49:28;;;;;;;8.40;5.97;;;1.60;55.80;;;;;;959377;144;27860;-77
2022/03/01 05:51:55;;;;;;;7.87;5.20;;;1.60;55.90;;;;;;960596;144;27417;-77
2022/03/01 05:54:21;;;;;;;7.73;5.80;;;1.60;55.70;;;;;;958879;144;27358;-77
2022/03/01 05:56:48;;;;;;;6.37;4.80;;;1.60;55.80;;;;;;957367;144;27323;-77
2022/03/01 05:59:14;;;;;;;7.20;5.30;;;1.60;55.90;;;;;;959008;144;27371;-76
2022/03/01 06:01:41;;;;;;;6.63;5.50;;;1.60;56.00;;;;;;958396;144;27307;-77
2022/03/01 06:04:07;;;;;;;9.47;5.53;;;1.60;55.80;;;;;;956892;144;27325;-76
2022/03/01 06:06:34;;;;;;;7.00;5.37;;;1.60;55.80;;;;;;957648;144;27424;-77
2022/03/01 06:09:01;;;;;;;5.77;4.73;;;1.60;55.90;;;;;;959480;144;27413;-77
2022/03/01 06:11:27;;;;;;;8.10;6.20;;;1.70;55.90;;;;;;958422;144;27323;-77
2022/03/01 06:13:54;;;;;;;6.87;4.97;;;1.70;55.80;;;;;;959506;144;27305;-77
2022/03/01 06:16:20;;;;;;;7.10;5.47;;;1.70;55.80;;;;;;961598;144;27258;-77
2022/03/01 06:18:47;;;;;;;6.60;5.23;;;1.80;55.80;;;;;;962564;144;27315;-77
2022/03/01 06:21:14;;;;;;;11.17;5.80;;;1.80;55.80;;;;;;980254;142;27400;-76
2022/03/01 06:23:40;;;;;;;6.27;4.53;;;1.90;55.90;;;;;;984375;142;27335;-77
2022/03/01 06:26:07;;;;;;;8.27;5.67;;;1.90;55.80;;;;;;982199;142;27243;-77
2022/03/01 06:28:33;;;;;;;7.17;5.80;;;2.00;55.90;;;;;;984905;142;27296;-77
2022/03/01 06:31:00;;;;;;;6.73;5.10;;;2.00;55.90;;;;;;982886;142;27816;-77
2022/03/01 06:33:26;;;;;;;6.70;5.13;;;2.20;56.10;;;;;;981950;142;27265;-76
2022/03/01 06:35:53;;;;;;;5.83;5.17;;;2.30;56.20;;;;;;980968;142;27295;-76
2022/03/01 06:38:20;;;;;;;5.97;5.37;;;2.50;56.40;;;;;;980615;142;27296;-77
2022/03/01 06:40:48;;;;;;;9.87;6.00;;;2.70;56.50;;;;;;980825;142;27323;-77
2022/03/01 06:43:13;;;;;;;6.93;5.47;;;3.00;56.70;;;;;;981225;142;27323;-77
2022/03/01 06:45:39;;;;;;;6.70;5.43;;;3.40;56.80;;;;;;981469;142;27264;-77
2022/03/01 06:48:06;;;;;;;7.07;5.33;;;3.80;56.80;;;;;;982671;142;27260;-77
2022/03/01 06:50:33;;;;;;;7.60;5.50;;;4.20;56.70;;;;;;981376;142;27345;-77
2022/03/01 06:52:59;;;;;;;6.30;5.20;;;4.70;56.60;;;;;;983018;142;27273;-77
2022/03/01 06:55:27;;;;;;;8.83;6.33;;;5.10;56.50;;;;;;980475;142;27289;-77
2022/03/01 06:57:53;;;;;;;6.23;5.23;;;5.60;56.30;;;;;;980528;142;27316;-77
2022/03/01 07:00:19;;;;;;;6.50;5.37;;;6.10;56.00;;;;;;983306;142;27320;-77
2022/03/01 07:02:45;;;;;;;8.47;5.90;;;6.60;55.60;;;;;;978411;142;27327;-77
2022/03/01 07:05:12;;;;;;;7.00;5.47;;;7.00;54.90;;;;;;982665;142;27293;-77
2022/03/01 07:07:39;;;;;;;8.90;6.50;;;7.50;54.60;;;;;;981259;142;27324;-76
2022/03/01 07:10:05;;;;;;;12.47;7.20;;;7.90;53.90;;;;;;982131;142;27322;-77
2022/03/01 07:12:32;;;;;;;7.93;6.70;;;8.20;53.70;;;;;;982604;142;28190;-77
2022/03/01 07:14:59;;;;;;;8.40;6.60;;;8.60;53.10;;;;;;981738;142;27344;-77
2022/03/01 07:17:25;;;;;;;7.53;6.43;;;9.00;53.00;;;;;;981741;142;27316;-77
2022/03/01 07:19:52;;;;;;;7.27;6.57;;;9.30;52.90;;;;;;982495;142;27272;-77
2022/03/01 07:22:18;;;;;;;7.37;6.20;;;9.70;52.70;;;;;;982772;142;27308;-77
2022/03/01 07:24:45;;;;;;;6.87;6.17;;;10.10;52.40;;;;;;983013;142;27415;-77
2022/03/01 07:27:12;;;;;;;8.20;6.63;;;10.50;52.70;;;;;;979213;142;27212;-76
2022/03/01 07:29:38;;;;;;;9.53;7.10;;;10.90;51.70;;;;;;980673;142;27362;-76
2022/03/01 07:32:08;;;;;;;6.77;6.07;;;11.30;51.00;;;;;;980534;142;27281;-76
2022/03/01 07:34:34;;;;;;;8.13;6.33;;;11.70;50.60;;;;;;983964;142;27367;-75
2022/03/01 07:37:01;;;;;;;8.83;6.73;;;12.00;50.10;;;;;;981919;142;27360;-76
2022/03/01 07:39:27;;;;;;;7.47;6.60;;;12.20;49.00;;;;;;981434;142;27275;-76
2022/03/01 07:41:54;;;;;;;7.47;6.50;;;12.30;48.30;;;;;;980780;142;27241;-76
2022/03/01 07:44:21;;;;;;;8.30;6.27;;;12.40;48.30;;;;;;981468;142;27273;-76
2022/03/01 07:46:47;;;;;;;9.70;6.30;;;12.50;48.20;;;;;;980756;142;27257;-75
2022/03/01 07:49:14;;;;;;;7.93;6.17;;;12.60;48.30;;;;;;981170;142;27436;-76
2022/03/01 07:51:40;;;;;;;7.10;5.93;;;12.90;48.20;;;;;;984799;142;27353;-76
2022/03/01 07:54:07;;;;;;;7.30;6.43;;;13.10;48.00;;;;;;981380;142;27799;-76
2022/03/01 07:56:33;;;;;;;7.23;6.53;;;13.30;47.90;;;;;;982350;142;27289;-76
2022/03/01 07:59:00;;;;;;;6.27;5.67;;;13.50;47.70;;;;;;982246;142;27246;-76
2022/03/01 08:01:27;;;;;;;7.73;6.20;;;13.80;47.60;;;;;;980001;142;27367;-76
2022/03/01 08:03:53;;;;;;;7.77;5.70;;;14.00;47.00;;;;;;982942;142;27276;-76
2022/03/01 08:06:20;;;;;;;7.07;6.00;;;14.30;47.10;;;;;;978068;142;27337;-76
2022/03/01 08:08:46;;;;;;;9.03;6.13;;;14.50;46.90;;;;;;981278;142;27396;-76
2022/03/01 08:11:13;;;;;;;6.92;5.87;;;14.80;46.80;;;;;;982992;142;27328;-76
2022/03/01 08:13:40;;;;;;;6.60;5.90;;;15.00;46.40;;;;;;941615;149;27493;-76
2022/03/01 08:16:06;;;;;;;6.05;5.45;;;15.30;46.20;;;;;;957064;148;27344;-76
2022/03/01 08:18:33;;;;;;;6.45;5.53;;;15.60;45.70;;;;;;958832;146;27396;-76
2022/03/01 08:20:59;;;;;;;7.40;6.22;;;15.80;44.70;;;;;;952512;146;27775;-76
2022/03/01 08:23:26;;;;;;;13.70;6.35;;;15.90;44.30;;;;;;935473;148;27407;-76
2022/03/01 08:25:53;;;;;;;6.47;5.42;;;16.10;43.90;;;;;;937061;147;27435;-76
2022/03/01 08:28:19;;;;;;;7.57;5.77;;;16.10;43.50;;;;;;934195;150;27461;-77
2022/03/01 08:30:46;;;;;;;5.90;5.30;;;16.10;43.50;;;;;;934676;150;27370;-76
2022/03/01 08:33:16;;;;;;;7.17;5.45;;;16.20;43.30;;;;;;927227;150;27295;-76
2022/03/01 08:35:39;;;;;;;7.55;5.10;;;16.30;43.60;;;;;;933956;150;27288;-76
2022/03/01 08:38:05;;;;;;;7.00;5.47;;;16.40;43.70;;;;;;932004;150;27376;-76
2022/03/01 08:40:32;;;;;;;5.90;5.08;;;16.60;43.70;;;;;;933398;150;27321;-76
2022/03/01 08:42:59;;;;;;;6.75;5.70;;;16.80;43.50;;;;;;927817;150;27388;-76
2022/03/01 08:45:25;;;;;;;5.22;4.72;;;17.00;43.20;;;;;;933514;150;27382;-76
2022/03/01 08:47:52;;;;;;;5.87;5.28;;;17.10;43.00;;;;;;933883;150;28901;-77
2022/03/01 08:50:18;;;;;;;8.40;5.75;;;17.40;43.10;;;;;;934645;150;27321;-76
2022/03/01 08:52:45;;;;;;;6.67;5.22;;;17.60;42.70;;;;;;932352;150;27466;-76
2022/03/01 08:55:12;;;;;;;6.95;5.33;;;17.80;42.10;;;;;;934231;150;27322;-77
2022/03/01 08:57:38;;;;;;;6.78;5.03;;;18.00;42.30;;;;;;927620;150;27300;-76
2022/03/01 09:00:05;;;;;;;6.45;5.85;;;18.20;42.00;;;;;;936909;147;27347;-76
2022/03/01 09:02:32;;;;;;;5.90;5.30;;;18.40;41.10;;;;;;937878;147;27432;-76
2022/03/01 09:04:58;;;;;;;6.10;5.08;;;18.50;41.00;;;;;;935094;150;27464;-76
2022/03/01 09:07:25;;;;;;;6.25;5.33;;;18.70;41.20;;;;;;926209;150;27366;-76
2022/03/01 09:09:51;;;;;;;6.08;5.47;;;18.80;41.20;;;;;;933102;150;27348;-76
2022/03/01 09:12:18;;;;;;;6.03;5.03;;;19.00;41.10;;;;;;931417;150;27371;-76
2022/03/01 09:14:44;;;;;;;5.83;5.17;;;19.20;40.20;;;;;;927167;150;27319;-76
2022/03/01 09:17:11;;;;;;;5.33;4.70;;;19.40;40.00;;;;;;933394;150;27307;-76
2022/03/01 09:19:38;;;;;;;6.17;5.58;;;19.40;39.70;;;;;;933195;150;27369;-76
2022/03/01 09:22:04;;;;;;;5.75;4.12;;;19.50;39.00;;;;;;927820;150;27382;-76
2022/03/01 09:24:31;;;;;;;6.03;5.08;;;19.50;39.30;;;;;;961518;148;27403;-76
2022/03/01 09:27:01;;;;;;;6.65;5.10;;;19.50;39.10;;;;;;961892;148;27273;-76
2022/03/01 09:29:24;;;;;;;12.75;4.92;;;19.50;39.20;;;;;;961278;148;27379;-76
2022/03/01 09:31:51;;;;;;;8.73;5.28;;;19.50;39.20;;;;;;962859;148;27261;-76
2022/03/01 09:34:17;;;;;;;6.85;5.15;;;19.50;39.10;;;;;;962084;147;27288;-76
2022/03/01 09:36:44;;;;;;;5.42;4.78;;;19.50;38.80;;;;;;962281;148;27838;-76
2022/03/01 09:39:10;;;;;;;5.55;4.80;;;19.60;39.10;;;;;;961184;148;27321;-76
2022/03/01 09:41:37;;;;;;;5.67;5.12;;;19.60;39.20;;;;;;938596;152;27445;-76
2022/03/01 09:44:04;;;;;;;7.62;5.05;;;19.70;39.20;;;;;;962305;148;27234;-76
2022/03/01 09:46:30;;;;;;;6.60;5.15;;;19.80;39.00;;;;;;960536;148;27242;-76
2022/03/01 09:48:57;;;;;;;5.40;4.45;;;19.90;38.80;;;;;;961382;147;27357;-76
2022/03/01 09:51:23;;;;;;;5.65;4.92;;;19.80;38.00;;;;;;961008;148;27287;-76
2022/03/01 09:53:50;;;;;;;5.53;4.90;;;19.70;37.50;;;;;;938118;151;27288;-76
2022/03/01 09:56:18;;;;;;;5.53;4.50;;;19.50;37.00;;;;;;926798;151;27444;-76
2022/03/01 09:58:49;;;;;;;5.17;4.67;;;19.10;36.90;;;;;;963060;147;27330;-76
2022/03/01 10:01:16;;;;;;;5.22;4.72;;;18.70;36.80;;;;;;960559;148;27459;-76
2022/03/01 10:03:48;;;;;;;5.85;4.92;;;18.30;37.30;;;;;;961940;148;27354;-76
2022/03/01 10:06:09;;;;;;;7.37;4.65;;;18.00;37.00;;;;;;961238;145;27263;-77
2022/03/01 10:08:36;;;;;;;6.55;5.58;;;17.70;37.30;;;;;;961603;145;27438;-76
2022/03/01 10:11:02;;;;;;;4.90;4.42;;;17.40;36.10;;;;;;959871;147;27279;-76
2022/03/01 10:13:29;;;;;;;5.25;4.75;;;17.10;36.60;;;;;;962747;148;27290;-77
2022/03/01 10:16:07;;;;;;;5.75;4.72;;;16.80;36.90;;;;;;961534;147;27401;-77
2022/03/01 10:18:34;;;;;;;7.10;4.95;;;16.40;36.90;;;;;;963192;147;27409;-76
2022/03/01 10:21:06;;;;;;;5.87;5.27;;;16.10;37.00;;;;;;960884;148;27326;-76
2022/03/01 10:23:34;;;;;;;5.20;4.67;;;15.70;37.20;;;;;;943493;147;27379;-76
2022/03/01 10:26:19;;;;;;;5.70;5.10;;;15.40;37.10;;;;;;965647;143;27808;-77
2022/03/01 10:28:45;;;;;;;5.60;5.00;;;15.10;37.40;;;;;;964550;143;27682;-77
2022/03/01 10:31:22;;;;;;;5.73;5.13;;;14.80;37.30;;;;;;964349;143;27307;-76
2022/03/01 10:34:00;;;;;;;4.43;3.77;;;14.50;37.60;;;;;;965887;143;27266;-76
2022/03/01 10:36:25;;;;;;;5.80;4.57;;;14.30;37.70;;;;;;966276;143;27353;-77
2022/03/01 10:39:01;;;;;;;5.63;4.60;;;14.00;37.90;;;;;;938631;149;27880;-76
2022/03/01 10:41:27;;;;;;;5.40;4.60;;;13.70;38.00;;;;;;965314;143;27258;-76
2022/03/01 10:43:54;;;;;;;5.27;4.73;;;13.50;38.30;;;;;;933696;149;27351;-76
2022/03/01 10:46:21;;;;;;;5.47;4.50;;;13.40;38.50;;;;;;963517;143;27268;-76
2022/03/01 10:48:47;;;;;;;7.90;5.17;;;13.30;38.20;;;;;;965558;143;27334;-76
2022/03/01 10:51:19;;;;;;;7.40;4.87;;;13.10;38.40;;;;;;935557;149;27300;-76
2022/03/01 10:53:45;;;;;;;5.93;4.80;;;12.90;38.40;;;;;;965418;143;27313;-76
2022/03/01 10:56:10;;;;;;;5.60;4.37;;;12.80;38.40;;;;;;965625;143;27289;-76
2022/03/01 10:58:36;;;;;;;5.13;4.13;;;12.60;38.10;;;;;;967067;143;27371;-76
2022/03/01 11:01:03;;;;;;;6.40;4.97;;;12.40;38.20;;;;;;967159;143;27315;-76
2022/03/01 11:03:30;;;;;;;6.00;4.90;;;12.30;38.40;;;;;;964410;143;27295;-76
2022/03/01 11:05:56;;;;;;;6.17;4.37;;;12.10;38.40;;;;;;937337;149;27340;-76
2022/03/01 11:08:23;;;;;;;6.50;5.13;;;11.90;38.80;;;;;;965197;143;27384;-76
2022/03/01 11:10:49;;;;;;;4.63;4.13;;;11.90;39.00;;;;;;966237;143;27386;-76
2022/03/01 11:13:16;;;;;;;4.57;4.10;;;11.70;39.10;;;;;;966264;143;27372;-76
2022/03/01 11:15:57;;;;;;;4.70;4.20;;;11.70;39.40;;;;;;964115;143;27390;-76
2022/03/01 11:18:27;;;;;;;6.50;5.20;;;11.70;39.60;;;;;;935898;149;27995;-77
2022/03/01 11:20:53;;;;;;;5.43;4.40;;;11.70;39.80;;;;;;966851;143;27303;-77
2022/03/01 11:23:23;;;;;;;5.77;4.70;;;11.70;39.90;;;;;;972891;142;27290;-76
2022/03/01 11:25:49;;;;;;;5.93;4.80;;;11.80;39.60;;;;;;981608;142;27447;-76
2022/03/01 11:28:16;;;;;;;5.20;4.43;;;11.70;39.20;;;;;;948737;148;27344;-76
2022/03/01 11:30:42;;;;;;;5.20;4.70;;;11.70;39.30;;;;;;957154;146;27471;-76
2022/03/01 11:33:09;;;;;;;5.87;5.00;;;11.60;39.30;;;;;;957658;149;27273;-76
2022/03/01 11:35:36;;;;;;;5.90;5.03;;;11.60;39.30;;;;;;956924;149;27328;-76
2022/03/01 11:38:05;;;;;;;4.77;4.20;;;11.50;39.30;;;;;;955876;149;27357;-76
2022/03/01 11:40:32;;;;;;;5.50;4.57;;;11.40;39.40;;;;;;948654;148;27316;-76
2022/03/01 11:43:10;;;;;;;6.33;4.87;;;11.40;39.60;;;;;;959889;146;27364;-76
2022/03/01 11:45:36;;;;;;;6.30;4.87;;;11.30;39.70;;;;;;948590;148;27308;-77
2022/03/01 11:48:03;;;;;;;12.70;5.17;;;11.30;39.90;;;;;;942849;148;27478;-76
2022/03/01 11:50:30;;;;;;;5.30;4.80;;;11.20;40.20;;;;;;940181;148;27346;-76
2022/03/01 11:52:56;;;;;;;7.73;4.57;;;11.20;40.10;;;;;;956153;149;27456;-76
2022/03/01 11:55:23;;;;;;;5.83;5.07;;;11.30;40.30;;;;;;957389;149;27392;-76
2022/03/01 11:57:51;;;;;;;5.57;4.97;;;11.30;40.20;;;;;;941318;148;27360;-76
2022/03/01 12:00:16;;;;;;;7.33;5.00;;;11.30;40.20;;;;;;958081;146;27418;-76
2022/03/01 12:02:45;;;;;;;7.90;5.00;;;11.30;40.20;;;;;;940100;149;27326;-76
2022/03/01 12:05:24;;;;;;;7.80;4.50;;;11.40;40.20;;;;;;941549;148;27416;-76
2022/03/01 12:07:50;;;;;;;6.13;4.60;;;11.40;40.30;;;;;;956569;149;27381;-76
2022/03/01 12:10:20;;;;;;;6.17;4.40;;;11.40;40.30;;;;;;957055;149;27344;-76
2022/03/01 12:12:47;;;;;;;5.13;4.43;;;11.50;40.30;;;;;;957116;149;27365;-77
2022/03/01 12:15:13;;;;;;;6.53;4.90;;;11.50;40.20;;;;;;957257;149;27404;-76
2022/03/01 12:17:46;;;;;;;6.47;4.47;;;11.60;40.10;;;;;;956861;149;27309;-76
2022/03/01 12:20:12;;;;;;;6.57;4.77;;;11.60;40.80;;;;;;957003;146;27350;-77
2022/03/01 12:22:39;;;;;;;4.73;4.23;;;11.70;40.30;;;;;;958460;146;27332;-76
2022/03/01 12:25:06;;;;;;;9.43;5.07;;;11.70;40.30;;;;;;922185;150;27345;-76
2022/03/01 12:27:32;;;;;;;5.63;4.43;;;11.80;40.20;;;;;;933906;150;27437;-76
2022/03/01 12:30:01;;;;;;;4.97;4.47;;;11.80;40.10;;;;;;927666;150;27338;-76
2022/03/01 12:32:28;;;;;;;6.70;5.17;;;11.80;40.10;;;;;;932708;150;27489;-76
2022/03/01 12:34:58;;;;;;;5.67;4.77;;;11.90;40.10;;;;;;933550;150;27347;-76
2022/03/01 12:37:21;;;;;;;6.03;4.53;;;12.00;40.00;;;;;;931035;150;27443;-76
2022/03/01 12:39:48;;;;;;;4.90;4.40;;;12.00;40.00;;;;;;932055;150;27449;-76
2022/03/01 12:42:14;;;;;;;5.47;4.60;;;12.10;40.00;;;;;;935300;150;27424;-76
2022/03/01 12:44:42;;;;;;;6.07;4.33;;;12.20;40.00;;;;;;933893;150;27324;-76
2022/03/01 12:47:07;;;;;;;4.47;4.00;;;12.30;39.90;;;;;;933778;150;27421;-76
2022/03/01 12:49:34;;;;;;;5.00;4.20;;;12.30;39.80;;;;;;934663;150;27376;-76